Qualicum Beach, Canada
Current Conditions -  °F | °C
As of 8:00 AM on Thursday 23 Oct 2014 (Local Time) from CYQQ Reporting Station
Rain Showers Rain Showers  
Wind Chill: 48°   Ceiling: 4600
Heat Index: 48°   Visibility: 15mi
Dew Point: 48°   Wind: 2mph
Humidity: 100%   Direction: 190°S
Pressure: 29.66"   Gusts: NA
Location:  49.35°N, 124.44°W
Report Text: CYQQ 231500Z 19002KT 15SM -SHRA MIFG SCT019 OVC046 09/09 A2966 RMK SC3SC5 MIFG S SLP044
Loading
Personal Weather Stations






























Interactive Weather Map
Tropical Storm Tracking
New forecast layout! Learn more

10-Day Weather Forecast

Advertisements
Track Severe Weather on mobile